Time;durP1;ratioP1;P1;durP2;ratioP2;P2;SDS_P1;SDS_P2;PMS_P1;PMS_P2;Temp;Humidity;BMP_temperature;BMP_pressure;BME280_temperature;BME280_humidity;BME280_pressure;Samples;Min_cycle;Max_cycle;Signal;HPM_P1;HPM_P2
2022/09/20 00:01:12;;;;;;;42.50;24.20;;;;;;;8.58;98.67;98118.17;105160;1281;138333;-69
2022/09/20 00:03:45;;;;;;;35.90;22.60;;;;;;;8.60;98.59;98120.27;105280;1281;22848;-69
2022/09/20 00:06:14;;;;;;;37.40;22.00;;;;;;;8.61;98.50;98120.83;105265;1281;139069;-71
2022/09/20 00:08:42;;;;;;;36.70;21.70;;;;;;;8.62;98.68;98124.45;105560;1280;23480;-69
2022/09/20 00:11:18;;;;;;;39.10;23.90;;;;;;;8.63;98.63;98124.25;105414;1280;23083;-69
2022/09/20 00:13:47;;;;;;;35.20;22.60;;;;;;;8.64;98.75;98126.49;105351;1280;138216;-69
2022/09/20 00:16:18;;;;;;;41.00;24.20;;;;;;;8.65;98.86;98128.31;105518;1280;22982;-69
2022/09/20 00:18:49;;;;;;;39.60;24.50;;;;;;;8.67;98.71;98132.56;105177;1281;138311;-70
2022/09/20 00:21:18;;;;;;;36.50;22.20;;;;;;;8.67;98.57;98128.28;105300;1281;22884;-69
2022/09/20 00:23:45;;;;;;;38.20;23.50;;;;;;;8.67;98.62;98130.14;105415;1281;25324;-69
2022/09/20 00:26:16;;;;;;;35.40;22.70;;;;;;;8.67;98.68;98132.14;105187;1281;138338;-69
2022/09/20 00:28:45;;;;;;;32.00;20.90;;;;;;;8.67;98.51;98130.94;105330;1280;22539;-69
2022/09/20 00:31:13;;;;;;;38.20;23.10;;;;;;;8.66;98.71;98128.96;105421;1280;138341;-69
2022/09/20 00:36:26;;;;;;;37.90;22.60;;;;;;;8.64;98.79;98130.63;105311;1280;138263;-69
2022/09/20 00:38:58;;;;;;;38.70;23.10;;;;;;;8.63;98.70;98134.23;105288;1280;24108;-69
2022/09/20 00:41:25;;;;;;;40.50;24.50;;;;;;;8.63;98.84;98132.77;105272;1281;23469;-69
2022/09/20 00:43:52;;;;;;;37.40;23.10;;;;;;;8.64;99.17;98133.39;105199;1281;137969;-69
2022/09/20 00:46:33;;;;;;;33.70;21.70;;;;;;;8.65;98.99;98133.30;105331;1281;22563;-69
2022/09/20 00:49:27;;;;;;;36.40;21.70;;;;;;;8.65;99.07;98133.45;105289;1280;138041;-69
2022/09/20 00:51:59;;;;;;;35.00;21.70;;;;;;;8.65;99.09;98136.12;105246;1280;189615;-69
2022/09/20 00:54:29;;;;;;;39.70;23.10;;;;;;;8.65;98.97;98134.07;105304;1280;138479;-69
2022/09/20 00:56:57;;;;;;;38.00;22.30;;;;;;;8.67;99.06;98135.29;105389;1280;24310;-69
2022/09/20 00:59:35;;;;;;;37.70;23.10;;;;;;;8.68;99.16;98133.30;105553;1280;22541;-69
2022/09/20 01:02:08;;;;;;;35.70;22.20;;;;;;;8.69;99.16;98134.35;105179;1281;138031;-69
2022/09/20 01:04:40;;;;;;;35.70;22.40;;;;;;;8.71;99.19;98128.47;105348;1281;25330;-69
2022/09/20 01:07:10;;;;;;;33.30;21.50;;;;;;;8.72;99.13;98129.80;105255;1281;138107;-69
2022/09/20 01:09:36;;;;;;;37.00;21.40;;;;;;;8.73;99.30;98134.83;105429;1280;23092;-69
2022/09/20 01:12:11;;;;;;;36.70;22.30;;;;;;;8.73;99.10;98130.31;105391;1280;138303;-70
2022/09/20 01:14:40;;;;;;;36.80;23.10;;;;;;;8.73;99.17;98127.38;105484;1280;22673;-69
2022/09/20 01:17:07;;;;;;;;;;;;;;;8.72;99.28;98129.70;105459;1280;26490;-69
2022/09/20 01:19:47;;;;;;;35.90;22.80;;;;;;;8.73;99.32;98131.83;105272;1280;124419;-69
2022/09/20 01:22:24;;;;;;;35.70;21.30;;;;;;;8.74;99.40;98135.26;105433;1279;25347;-69
2022/09/20 01:25:10;;;;;;;39.00;23.70;;;;;;;8.74;99.41;98127.27;105366;1279;137989;-69
2022/09/20 01:27:44;;;;;;;37.00;21.60;;;;;;;8.75;99.52;98126.76;105481;1279;24394;-69
2022/09/20 01:30:24;;;;;;;35.90;22.00;;;;;;;8.75;99.55;98126.01;105565;1277;138105;-69
2022/09/20 01:33:10;;;;;;;36.10;23.20;;;;;;;8.77;99.53;98124.89;105724;1278;22787;-69
2022/09/20 01:35:40;;;;;;;32.30;22.10;;;;;;;8.79;99.54;98127.48;105673;1277;23861;-69
2022/09/20 01:38:12;;;;;;;33.50;21.80;;;;;;;8.79;99.60;98132.43;105575;1277;138037;-69
2022/09/20 01:41:04;;;;;;;39.00;23.50;;;;;;;8.80;99.56;98131.54;105500;1277;30197;-69
2022/09/20 01:43:57;;;;;;;36.10;21.60;;;;;;;8.82;99.57;98129.23;105406;1277;138017;-69
2022/09/20 01:46:35;;;;;;;36.00;23.40;;;;;;;8.82;99.37;98129.23;105391;1277;24318;-69
2022/09/20 01:49:23;;;;;;;27.10;20.00;;;;;;;8.84;99.49;98127.54;105356;1277;138414;-69
2022/09/20 01:52:08;;;;;;;36.90;23.40;;;;;;;8.84;99.40;98126.45;105590;1277;25546;-69
2022/09/20 01:54:56;;;;;;;33.50;22.10;;;;;;;8.85;99.33;98127.42;105517;1277;139074;-69
2022/09/20 01:57:34;;;;;;;33.90;21.50;;;;;;;8.85;99.53;98129.30;105647;1277;22572;-70
2022/09/20 02:00:14;;;;;;;34.50;22.90;;;;;;;8.86;99.32;98128.17;105510;1277;22570;-70
2022/09/20 02:02:59;;;;;;;34.50;22.40;;;;;;;8.87;99.55;98130.19;105439;1279;23972;-70
2022/09/20 02:05:58;;;;;;;33.60;22.70;;;;;;;8.86;99.33;98130.03;105443;1279;24336;-69
2022/09/20 02:08:35;;;;;;;35.30;22.10;;;;;;;8.86;99.35;98125.78;105366;1279;137867;-69
2022/09/20 02:11:11;;;;;;;37.20;23.30;;;;;;;8.87;99.29;98132.27;105706;1277;26059;-69
2022/09/20 02:13:38;;;;;;;30.70;20.80;;;;;;;8.88;99.42;98133.00;105476;1277;138047;-70
2022/09/20 02:16:23;;;;;;;34.70;22.20;;;;;;;8.88;99.25;98138.27;105625;1277;25313;-70
2022/09/20 02:19:02;;;;;;;31.60;21.70;;;;;;;8.89;99.35;98141.38;105532;1277;138112;-69
2022/09/20 02:21:47;;;;;;;33.70;22.80;;;;;;;8.88;99.22;98143.33;105421;1279;30308;-69
2022/09/20 02:24:29;;;;;;;32.50;21.10;;;;;;;8.88;99.26;98142.02;105351;1279;138233;-69
2022/09/20 02:27:11;;;;;;;35.40;22.30;;;;;;;8.89;99.29;98147.72;105475;1279;23050;-69
2022/09/20 02:30:00;;;;;;;27.90;20.40;;;;;;;8.88;99.28;98146.73;105467;1278;22631;-69
2022/09/20 02:32:57;;;;;;;30.30;20.60;;;;;;;8.88;99.24;98144.66;105598;1277;24288;-69
2022/09/20 02:35:26;;;;;;;31.60;21.70;;;;;;;8.88;99.32;98149.77;105644;1277;22580;-69
2022/09/20 02:38:05;;;;;;;30.00;22.30;;;;;;;8.88;99.33;98150.46;105611;1277;138187;-69
2022/09/20 02:40:34;;;;;;;31.30;21.50;;;;;;;8.88;99.46;98150.46;105535;1277;25272;-69
2022/09/20 02:43:20;;;;;;;28.00;19.50;;;;;;;8.88;99.47;98152.96;105399;1279;138051;-70
2022/09/20 02:46:10;;;;;;;30.20;20.40;;;;;;;8.89;99.67;98153.02;105454;1279;22710;-72
2022/09/20 02:48:50;;;;;;;30.80;21.30;;;;;;;8.90;99.63;98158.77;105355;1279;138282;-70
2022/09/20 02:51:23;;;;;;;30.00;21.40;;;;;;;8.90;99.50;98158.55;105564;1277;23974;-70
2022/09/20 02:54:27;;;;;;;30.50;20.90;;;;;;;8.90;99.59;98161.83;105736;1277;24241;-70
2022/09/20 02:57:21;;;;;;;28.60;21.40;;;;;;;8.91;99.52;98166.17;105582;1277;25261;-69
2022/09/20 03:00:09;;;;;;;30.30;22.20;;;;;;;8.91;99.58;98164.98;105696;1277;25133;-69
2022/09/20 03:03:04;;;;;;;31.20;21.30;;;;;;;8.92;99.59;98166.84;105683;1277;30353;-69
2022/09/20 03:05:43;;;;;;;27.30;19.20;;;;;;;8.92;99.55;98165.61;105443;1277;22778;-69
2022/09/20 03:08:17;;;;;;;32.20;21.40;;;;;;;8.92;99.56;98164.91;105399;1278;138164;-69
2022/09/20 03:10:57;;;;;;;28.90;21.00;;;;;;;8.93;99.48;98163.94;105542;1277;23298;-70
2022/09/20 03:13:42;;;;;;;29.30;20.30;;;;;;;8.93;99.61;98166.61;105590;1276;138009;-70
2022/09/20 03:16:20;;;;;;;26.20;19.90;;;;;;;8.95;99.52;98168.03;105651;1277;22535;-70
2022/09/20 03:18:58;;;;;;;27.60;20.60;;;;;;;8.96;99.54;98169.59;105609;1277;138693;-70
2022/09/20 03:21:43;;;;;;;25.00;18.90;;;;;;;8.97;99.44;98167.70;105512;1277;23973;-69
2022/09/20 03:24:21;;;;;;;28.90;21.50;;;;;;;8.98;99.31;98167.77;105350;1278;138760;-70
2022/09/20 03:27:12;;;;;;;26.10;19.50;;;;;;;8.99;99.40;98172.20;105439;1279;23961;-70
2022/09/20 03:30:05;;;;;;;26.50;18.50;;;;;;;9.01;99.44;98172.68;105463;1279;25259;-70
2022/09/20 03:32:51;;;;;;;30.00;20.90;;;;;;;9.03;99.30;98177.39;105577;1277;23230;-70
2022/09/20 03:35:33;;;;;;;26.80;20.00;;;;;;;9.04;99.32;98174.52;105629;1277;26564;-70
2022/09/20 03:38:27;;;;;;;26.00;19.40;;;;;;;9.04;99.27;98178.82;105615;1277;138575;-70
2022/09/20 03:41:09;;;;;;;27.50;19.70;;;;;;;9.05;99.22;98173.89;105707;1277;24245;-70
2022/09/20 03:43:45;;;;;;;26.00;18.80;;;;;;;9.05;99.16;98173.30;105675;1277;138119;-72
2022/09/20 03:46:36;;;;;;;28.10;20.50;;;;;;;9.06;99.11;98177.98;105605;1277;22541;-70
2022/09/20 03:49:31;;;;;;;30.20;21.00;;;;;;;9.06;98.95;98183.04;105651;1277;138230;-71
2022/09/20 03:52:22;;;;;;;27.90;20.30;;;;;;;9.07;98.96;98184.46;105540;1277;25270;-71
2022/09/20 03:55:12;;;;;;;27.10;20.30;;;;;;;9.07;99.00;98186.25;105358;1279;138054;-71
2022/09/20 03:58:06;;;;;;;27.90;20.70;;;;;;;9.07;98.89;98188.98;105435;1279;22563;-71
2022/09/20 04:01:02;;;;;;;27.30;19.90;;;;;;;9.06;98.91;98190.36;105358;1279;138148;-71
2022/09/20 04:03:48;;;;;;;28.50;20.20;;;;;;;9.06;98.74;98192.33;105630;1277;24473;-70
2022/09/20 04:06:42;;;;;;;23.70;18.60;;;;;;;9.05;98.92;98196.28;105453;1277;138829;-71
2022/09/20 04:09:46;;;;;;;25.60;18.80;;;;;;;9.05;98.78;98194.05;105649;1277;22570;-70
2022/09/20 04:12:26;;;;;;;24.80;18.70;;;;;;;9.06;98.77;98196.88;105467;1277;138255;-71
2022/09/20 04:15:22;;;;;;;20.40;17.00;;;;;;;9.05;98.72;98202.84;105538;1279;25375;-70
2022/09/20 04:18:01;;;;;;;25.10;18.40;;;;;;;9.04;98.48;98204.17;105614;1279;25346;-70
2022/09/20 04:20:46;;;;;;;24.90;17.90;;;;;;;9.05;98.62;98204.86;106040;1279;25380;-70
2022/09/20 04:23:31;;;;;;;22.20;17.10;;;;;;;9.05;98.54;98207.31;106766;1277;22552;-71
2022/09/20 04:26:01;;;;;;;23.60;17.80;;;;;;;9.04;98.35;98202.77;105822;1277;138299;-70
2022/09/20 04:28:36;;;;;;;22.40;16.80;;;;;;;9.04;98.29;98204.89;105741;1277;23168;-70
2022/09/20 04:31:16;;;;;;;20.80;15.90;;;;;;;9.04;98.27;98205.21;105660;1277;138364;-70
2022/09/20 04:33:49;;;;;;;26.30;18.50;;;;;;;9.04;98.23;98207.98;105508;1277;22563;-70
2022/09/20 04:36:27;;;;;;;22.40;17.90;;;;;;;9.04;98.14;98210.80;105503;1279;138609;-70
2022/09/20 04:39:36;;;;;;;22.20;16.70;;;;;;;9.04;98.14;98208.85;105739;1279;24255;-72
2022/09/20 04:42:15;;;;;;;23.70;16.80;;;;;;;9.04;98.36;98217.82;105424;1279;138622;-71
2022/09/20 04:45:07;;;;;;;20.30;15.50;;;;;;;9.04;98.17;98218.91;105759;1277;22571;-70
2022/09/20 04:48:13;;;;;;;21.30;16.70;;;;;;;9.03;98.26;98221.35;105697;1277;25355;-70
2022/09/20 04:51:00;;;;;;;20.20;16.10;;;;;;;9.03;98.04;98229.20;105776;1277;25371;-70
2022/09/20 04:53:45;;;;;;;21.00;16.00;;;;;;;9.02;98.20;98227.22;105864;1277;24300;-70
2022/09/20 04:56:39;;;;;;;19.90;16.20;;;;;;;9.01;98.14;98227.45;105621;1279;138226;-71
2022/09/20 04:59:21;;;;;;;20.00;15.80;;;;;;;9.02;98.32;98224.29;105571;1279;22585;-71
2022/09/20 05:02:07;;;;;;;20.00;16.90;;;;;;;9.01;98.10;98223.69;105649;1279;138286;-70
2022/09/20 05:05:08;;;;;;;23.00;17.40;;;;;;;9.04;98.48;98226.34;105659;1277;24083;-72
2022/09/20 05:07:55;;;;;;;20.70;16.00;;;;;;;9.05;97.97;98226.20;105621;1277;138776;-70
2022/09/20 05:10:56;;;;;;;21.80;16.80;;;;;;;9.06;97.98;98228.77;105675;1277;24419;-70
2022/09/20 05:13:45;;;;;;;20.70;16.00;;;;;;;9.06;97.98;98232.97;105475;1277;138719;-70
2022/09/20 05:16:12;;;;;;;;;;;;;;;9.08;97.92;98235.88;105511;1279;25256;-71
2022/09/20 05:19:06;;;;;;;20.80;15.60;;;;;;;9.07;97.80;98239.94;105349;1279;124534;-70
2022/09/20 05:21:42;;;;;;;20.70;15.50;;;;;;;9.07;97.75;98245.04;105529;1279;24419;-70
2022/09/20 05:24:51;;;;;;;20.70;15.80;;;;;;;9.06;97.79;98246.92;105735;1277;138449;-70
2022/09/20 05:27:33;;;;;;;20.90;16.20;;;;;;;9.07;97.66;98250.10;105637;1277;23077;-71
2022/09/20 05:30:28;;;;;;;20.60;15.70;;;;;;;9.08;97.72;98253.00;105594;1276;25382;-70
2022/09/20 05:33:09;;;;;;;17.40;14.40;;;;;;;9.10;97.73;98254.92;105713;1277;22560;-71
2022/09/20 05:36:04;;;;;;;19.70;14.70;;;;;;;9.10;97.67;98251.41;105451;1277;22543;-71
2022/09/20 05:38:39;;;;;;;20.70;15.20;;;;;;;9.12;97.73;98251.79;105498;1279;22561;-72
2022/09/20 05:41:29;;;;;;;23.20;15.80;;;;;;;9.13;97.60;98256.08;105511;1279;25336;-72
2022/09/20 05:44:22;;;;;;;21.40;16.20;;;;;;;9.14;97.51;98253.38;105355;1277;138501;-72
2022/09/20 05:47:33;;;;;;;22.10;16.90;;;;;;;9.17;97.58;98255.24;105308;1277;22554;-73
2022/09/20 05:50:17;;;;;;;21.80;16.30;;;;;;;9.21;97.46;98252.34;105557;1277;138318;-71
2022/09/20 05:53:20;;;;;;;24.80;16.80;;;;;;;9.24;97.53;98251.59;105642;1277;26687;-70
2022/09/20 05:56:30;;;;;;;23.00;17.30;;;;;;;9.27;97.48;98253.65;105323;1277;138286;-71
2022/09/20 05:59:05;;;;;;;19.60;16.00;;;;;;;9.31;97.44;98255.79;105695;1277;25451;-70
2022/09/20 06:01:38;;;;;;;21.40;17.00;;;;;;;9.34;97.32;98257.41;105547;1275;138653;-71
2022/09/20 06:04:22;;;;;;;25.40;18.10;;;;;;;9.36;97.35;98256.36;105607;1277;22550;-71
2022/09/20 06:07:02;;;;;;;20.50;16.70;;;;;;;9.40;97.19;98258.40;105439;1277;138231;-71
2022/09/20 06:09:59;;;;;;;22.60;17.20;;;;;;;9.44;97.25;98259.89;105512;1279;22556;-71
2022/09/20 06:12:34;;;;;;;22.40;17.10;;;;;;;9.46;97.06;98264.66;105420;1279;138420;-72
2022/09/20 06:15:23;;;;;;;25.10;18.90;;;;;;;9.47;96.95;98267.19;105480;1279;23065;-72
2022/09/20 06:18:23;;;;;;;22.60;17.30;;;;;;;9.48;96.98;98269.88;105647;1279;30213;-71
2022/09/20 06:21:23;;;;;;;22.00;17.30;;;;;;;9.49;96.86;98273.15;105475;1279;25396;-70
2022/09/20 06:23:57;;;;;;;22.40;16.90;;;;;;;9.56;97.54;98276.11;105815;1279;22547;-73
2022/09/20 06:26:29;;;;;;;26.70;17.60;;;;;;;9.65;97.19;98276.61;105425;1277;138225;-73
2022/09/20 06:29:04;;;;;;;21.10;15.50;;;;;;;9.69;96.65;98279.84;105631;1277;22551;-71
2022/09/20 06:31:31;;;;;;;23.30;15.90;;;;;;;9.70;95.97;98281.74;105520;1277;138402;-71
2022/09/20 06:34:14;;;;;;;16.80;14.60;;;;;;;9.71;95.94;98285.08;105721;1277;22539;-72
2022/09/20 06:42:37;;;;;;;23.90;15.50;;;;;;;9.78;95.25;98287.00;105454;1279;138431;-71
2022/09/20 06:45:05;;;;;;;24.40;16.90;;;;;;;9.76;94.96;98295.08;105533;1279;22571;-71
2022/09/20 06:47:33;;;;;;;22.80;16.50;;;;;;;9.75;95.21;98296.80;105567;1277;24425;-70
2022/09/20 06:50:00;;;;;;;27.90;16.90;;;;;;;9.74;95.17;98299.82;105455;1277;138885;-71
2022/09/20 06:52:27;;;;;;;26.20;16.70;;;;;;;9.71;94.80;98299.13;105625;1277;22586;-71
2022/09/20 06:54:55;;;;;;;27.40;18.40;;;;;;;9.67;94.76;98305.11;105520;1277;138905;-71
2022/09/20 06:57:36;;;;;;;27.70;18.50;;;;;;;9.65;94.86;98308.45;105715;1277;25263;-72
2022/09/20 07:00:05;;;;;;;28.00;17.70;;;;;;;9.63;94.69;98310.39;105371;1279;138367;-70
2022/09/20 07:02:32;;;;;;;25.60;19.20;;;;;;;9.61;94.63;98313.77;105564;1279;23152;-71
2022/09/20 07:04:59;;;;;;;26.90;18.80;;;;;;;9.60;94.67;98314.63;105663;1279;22804;-71
2022/09/20 07:07:26;;;;;;;26.70;17.30;;;;;;;9.62;95.05;98316.68;105630;1277;138337;-71
2022/09/20 07:09:53;;;;;;;23.20;16.60;;;;;;;9.62;94.79;98319.52;105531;1277;22700;-71
2022/09/20 07:12:20;;;;;;;24.30;17.20;;;;;;;9.63;94.96;98324.81;105600;1277;139338;-71
2022/09/20 07:14:46;;;;;;;26.60;16.90;;;;;;;9.67;95.40;98326.69;105690;1276;23611;-71
2022/09/20 07:17:13;;;;;;;23.20;15.70;;;;;;;9.73;95.27;98331.84;105635;1277;25357;-70
2022/09/20 07:19:40;;;;;;;21.40;16.10;;;;;;;9.78;95.36;98325.41;105418;1279;138309;-70
2022/09/20 07:22:07;;;;;;;16.30;12.60;;;;;;;9.82;94.74;98327.23;105448;1279;24852;-71
2022/09/20 07:24:34;;;;;;;21.20;15.40;;;;;;;9.86;94.57;98330.13;105433;1278;139410;-71
2022/09/20 07:27:03;;;;;;;21.10;15.40;;;;;;;9.93;94.99;98334.71;105530;1277;22544;-71
2022/09/20 07:29:30;;;;;;;31.50;15.20;;;;;;;10.02;94.96;98335.30;105675;1277;31639;-71
2022/09/20 07:31:57;;;;;;;27.00;15.00;;;;;;;10.10;94.55;98339.38;105497;1277;138401;-70
2022/09/20 07:34:26;;;;;;;17.80;13.50;;;;;;;10.20;94.76;98334.99;105663;1277;24301;-71
2022/09/20 07:36:52;;;;;;;19.20;13.40;;;;;;;10.33;94.30;98334.67;106049;1278;138710;-74
2022/09/20 07:39:19;;;;;;;19.30;12.90;;;;;;;10.46;94.62;98336.32;105468;1278;22551;-71
2022/09/20 07:41:49;;;;;;;16.20;12.10;;;;;;;10.59;93.86;98338.60;105571;1279;25327;-72
2022/09/20 07:44:20;;;;;;;14.80;12.30;;;;;;;10.69;93.40;98341.21;105434;1279;138696;-71
2022/09/20 07:46:48;;;;;;;14.30;11.50;;;;;;;10.77;92.87;98342.96;105523;1279;22560;-71
2022/09/20 07:49:16;;;;;;;17.10;12.20;;;;;;;10.84;91.98;98342.67;105704;1277;22691;-71
2022/09/20 07:51:43;;;;;;;15.60;11.60;;;;;;;10.87;91.51;98341.91;106101;1277;141351;-72
2022/09/20 07:54:10;;;;;;;15.40;12.30;;;;;;;10.95;91.60;98346.99;105650;1277;22555;-71
2022/09/20 07:56:37;;;;;;;20.90;12.50;;;;;;;11.07;92.51;98347.64;105564;1277;138601;-71
2022/09/20 07:59:05;;;;;;;21.20;12.40;;;;;;;11.17;92.09;98350.73;105706;1277;22538;-72
2022/09/20 08:01:32;;;;;;;15.70;10.60;;;;;;;11.25;90.96;98355.84;105661;1279;22761;-73
2022/09/20 08:04:00;;;;;;;18.00;11.30;;;;;;;11.26;90.04;98351.06;105595;1279;139967;-71
2022/09/20 08:06:27;;;;;;;12.20;9.30;;;;;;;11.30;89.98;98359.80;105504;1279;24249;-72
2022/09/20 08:08:54;;;;;;;10.80;8.70;;;;;;;11.35;89.73;98358.77;105518;1277;25251;-71
2022/09/20 08:11:28;;;;;;;14.40;10.00;;;;;;;11.40;89.24;98359.65;105616;1277;138254;-72
2022/09/20 08:13:58;;;;;;;15.40;9.40;;;;;;;11.45;89.37;98363.75;105722;1277;22707;-71
2022/09/20 08:16:27;;;;;;;12.70;8.70;;;;;;;11.49;89.21;98362.87;105518;1277;139804;-72
2022/09/20 08:18:57;;;;;;;10.90;8.10;;;;;;;11.52;88.86;98360.63;105622;1277;22551;-71
2022/09/20 08:21:26;;;;;;;8.90;7.20;;;;;;;11.56;88.62;98357.84;105408;1279;138347;-72
2022/09/20 08:23:53;;;;;;;9.90;7.90;;;;;;;11.60;88.17;98363.39;105530;1279;25247;-71
2022/09/20 08:26:25;;;;;;;10.90;8.60;;;;;;;11.61;87.84;98363.79;105622;1278;22715;-71
2022/09/20 08:28:57;;;;;;;15.00;8.40;;;;;;;11.62;87.69;98364.17;105480;1277;138422;-72
2022/09/20 08:31:27;;;;;;;14.10;8.50;;;;;;;11.61;87.66;98367.98;105647;1277;22657;-71
2022/09/20 08:33:54;;;;;;;11.80;8.30;;;;;;;11.62;87.42;98366.91;105750;1277;139016;-74
2022/09/20 08:36:25;;;;;;;14.80;7.60;;;;;;;11.64;86.81;98367.92;105570;1277;22574;-71
2022/09/20 08:38:52;;;;;;;12.10;7.30;;;;;;;11.66;86.47;98366.36;105678;1277;22566;-71
2022/09/20 08:41:57;;;;;;;15.40;7.10;;;;;;;11.74;86.41;98365.73;105608;1279;138222;-72
2022/09/20 08:44:28;;;;;;;10.80;7.00;;;;;;;11.86;86.14;98370.08;105613;1279;22580;-71
2022/09/20 08:47:14;;;;;;;8.80;5.70;;;;;;;11.94;85.87;98369.11;105679;1279;138414;-72
2022/09/20 08:49:42;;;;;;;7.10;4.10;;;;;;;12.03;85.36;98372.70;105575;1277;22880;-72
2022/09/20 08:52:16;;;;;;;5.40;4.40;;;;;;;12.07;84.24;98375.73;105690;1277;138441;-72
2022/09/20 08:54:43;;;;;;;6.90;3.70;;;;;;;12.08;83.22;98376.14;105729;1277;24831;-72
2022/09/20 08:57:15;;;;;;;9.00;4.70;;;;;;;12.05;82.85;98373.11;105596;1277;22755;-71
2022/09/20 08:59:43;;;;;;;10.20;4.70;;;;;;;12.08;83.61;98375.11;105490;1277;137972;-71
2022/09/20 09:02:20;;;;;;;7.00;2.90;;;;;;;12.11;82.15;98375.25;105531;1279;24493;-71
2022/09/20 09:04:50;;;;;;;3.50;1.90;;;;;;;12.10;80.41;98376.92;105396;1279;138357;-70
2022/09/20 09:07:20;;;;;;;5.00;2.40;;;;;;;12.08;79.91;98371.89;105566;1279;22604;-71
2022/09/20 09:09:50;;;;;;;2.90;1.80;;;;;;;12.11;79.05;98370.16;105632;1277;138348;-71
2022/09/20 09:12:29;;;;;;;12.60;2.50;;;;;;;12.13;77.91;98368.06;106015;1277;22605;-71
2022/09/20 09:15:01;;;;;;;2.70;1.50;;;;;;;12.20;77.20;98364.73;105823;1277;26522;-71
2022/09/20 09:17:29;;;;;;;2.80;1.70;;;;;;;12.31;76.82;98367.20;105546;1277;138614;-72
2022/09/20 09:20:20;;;;;;;2.50;2.00;;;;;;;12.50;76.47;98363.86;105760;1277;25373;-70
2022/09/20 09:23:02;;;;;;;4.00;2.10;;;;;;;12.82;76.61;98359.39;105904;1279;138257;-72
2022/09/20 09:25:33;;;;;;;3.70;1.80;;;;;;;13.16;75.47;98359.27;105453;1279;23796;-71
2022/09/20 09:28:12;;;;;;;2.80;1.90;;;;;;;13.45;74.80;98358.58;105444;1279;138933;-73
2022/09/20 09:30:46;;;;;;;3.80;2.10;;;;;;;13.61;73.56;98357.45;106173;1277;22544;-71
2022/09/20 09:33:30;;;;;;;3.60;1.80;;;;;;;13.52;72.13;98355.71;105855;1277;25356;-71
2022/09/20 09:36:13;;;;;;;3.50;1.80;;;;;;;13.56;71.86;98353.32;105771;1277;22574;-71
2022/09/20 09:38:46;;;;;;;3.00;2.20;;;;;;;13.60;72.05;98355.80;105939;1277;22567;-70
2022/09/20 09:41:25;;;;;;;2.90;2.10;;;;;;;13.48;71.82;98356.95;105756;1277;138245;-69
2022/09/20 09:44:08;;;;;;;2.50;2.30;;;;;;;13.24;71.18;98360.64;105973;1279;25257;-70
2022/09/20 09:46:41;;;;;;;2.90;2.30;;;;;;;12.91;72.75;98370.42;105594;1279;138144;-70
2022/09/20 09:49:21;;;;;;;3.40;3.10;;;;;;;12.50;74.64;98363.33;105686;1279;22537;-70
2022/09/20 09:51:54;;;;;;;2.10;1.40;;;;;;;12.12;76.11;98364.55;105542;1277;138436;-69
2022/09/20 09:54:27;;;;;;;2.20;2.00;;;;;;;11.79;75.91;98365.80;105594;1277;23923;-69
2022/09/20 09:57:22;;;;;;;2.20;2.00;;;;;;;11.51;77.53;98363.61;105948;1277;22551;-69
2022/09/20 10:00:10;;;;;;;3.30;2.00;;;;;;;11.24;79.54;98360.80;105556;1277;24384;-69
2022/09/20 10:03:15;;;;;;;1.60;1.40;;;;;;;11.05;79.78;98360.93;105531;1280;30232;-69
2022/09/20 10:06:03;;;;;;;3.60;1.90;;;;;;;10.89;78.79;98364.77;105421;1278;137969;-69
2022/09/20 10:08:51;;;;;;;5.70;2.30;;;;;;;10.75;79.83;98362.98;105543;1280;24431;-69
2022/09/20 10:11:24;;;;;;;2.90;2.60;;;;;;;10.67;81.17;98362.30;105496;1277;140549;-69
2022/09/20 10:14:13;;;;;;;4.50;3.20;;;;;;;10.63;82.49;98360.07;105681;1277;26510;-69
2022/09/20 10:17:15;;;;;;;4.40;3.10;;;;;;;10.64;82.99;98353.65;105439;1277;139287;-69
2022/09/20 10:20:06;;;;;;;3.80;2.90;;;;;;;10.61;82.96;98348.49;104944;1284;24884;-69
2022/09/20 10:22:34;;;;;;;4.50;3.90;;;;;;;10.68;83.66;98346.96;104804;1284;138669;-69
2022/09/20 10:25:09;;;;;;;4.30;3.10;;;;;;;10.99;84.67;98345.13;104874;1286;25295;-69
2022/09/20 10:28:13;;;;;;;3.70;3.20;;;;;;;11.32;85.05;98344.21;104801;1285;139138;-69
2022/09/20 10:31:14;;;;;;;3.30;2.40;;;;;;;11.77;83.94;98344.66;104776;1285;25488;-70
2022/09/20 10:33:55;;;;;;;4.90;3.10;;;;;;;12.16;82.70;98344.01;104942;1284;138654;-70
2022/09/20 10:36:43;;;;;;;2.70;2.20;;;;;;;12.50;82.65;98342.40;104926;1285;24231;-70
2022/09/20 10:39:24;;;;;;;2.70;2.30;;;;;;;12.82;81.43;98340.73;104933;1285;25694;-70
2022/09/20 10:45:05;;;;;;;3.30;2.40;;;;;;;13.34;79.46;98344.91;104845;1285;22753;-70
2022/09/20 10:47:45;;;;;;;2.80;2.40;;;;;;;13.49;77.25;98343.82;104709;1285;138451;-71
2022/09/20 10:50:28;;;;;;;2.70;2.50;;;;;;;13.71;77.15;98348.23;104881;1284;25409;-70
2022/09/20 10:53:29;;;;;;;3.50;2.60;;;;;;;13.97;75.42;98347.89;104808;1284;138355;-71
2022/09/20 10:56:20;;;;;;;3.30;3.00;;;;;;;14.26;75.51;98348.80;104914;1284;22569;-71
2022/09/20 10:59:11;;;;;;;4.20;3.40;;;;;;;14.61;74.70;98342.00;105379;1279;138135;-70
2022/09/20 11:02:12;;;;;;;2.80;2.60;;;;;;;14.81;72.47;98341.52;105506;1279;22563;-70
2022/09/20 11:04:52;;;;;;;3.90;2.00;;;;;;;14.97;71.62;98337.00;105546;1278;138253;-70
2022/09/20 11:07:45;;;;;;;2.30;2.10;;;;;;;15.02;68.90;98340.11;105530;1278;24111;-71
2022/09/20 11:10:19;;;;;;;2.50;1.90;;;;;;;15.01;68.45;98342.04;105413;1278;140594;-70
2022/09/20 11:12:56;;;;;;;2.50;2.30;;;;;;;14.81;66.75;98345.03;105640;1277;24002;-70
2022/09/20 11:15:28;;;;;;;1.90;1.70;;;;;;;14.54;67.25;98339.70;105882;1277;24326;-71
2022/09/20 11:18:26;;;;;;;3.10;2.30;;;;;;;14.65;68.44;98338.96;106294;1277;22795;-71
2022/09/20 11:21:01;;;;;;;2.00;1.80;;;;;;;14.54;67.73;98340.24;105891;1277;23967;-71
2022/09/20 11:23:34;;;;;;;4.10;2.30;;;;;;;14.23;67.92;98341.42;105781;1277;138696;-70
2022/09/20 11:26:12;;;;;;;1.70;1.60;;;;;;;13.84;67.81;98354.52;105517;1279;22564;-69
2022/09/20 11:28:47;;;;;;;1.50;1.40;;;;;;;13.49;67.50;98353.89;105443;1279;138201;-71
2022/09/20 11:31:22;;;;;;;1.90;1.60;;;;;;;13.22;68.90;98350.23;105901;1278;25440;-71
2022/09/20 11:34:13;;;;;;;2.50;1.50;;;;;;;13.08;70.23;98349.60;105667;1277;138092;-70
2022/09/20 11:36:58;;;;;;;3.50;2.10;;;;;;;12.94;70.73;98353.06;105839;1277;24251;-70
2022/09/20 11:39:41;;;;;;;2.50;1.90;;;;;;;12.92;72.46;98355.02;105901;1277;22533;-71
2022/09/20 11:42:15;;;;;;;3.90;2.40;;;;;;;13.01;72.84;98359.55;105834;1277;24227;-71
2022/09/20 11:44:42;;;;;;;2.20;1.60;;;;;;;13.14;72.87;98357.06;105682;1277;22537;-71
2022/09/20 11:47:24;;;;;;;2.30;2.10;;;;;;;13.44;71.97;98352.83;105460;1278;138160;-71
2022/09/20 11:50:31;;;;;;;2.00;1.50;;;;;;;13.65;69.98;98355.33;105532;1278;24322;-70
2022/09/20 11:53:12;;;;;;;2.40;1.50;;;;;;;13.74;69.70;98355.25;105604;1277;138142;-70
2022/09/20 11:55:49;;;;;;;2.20;1.50;;;;;;;13.78;69.43;98354.07;106162;1277;23373;-72
2022/09/20 11:58:21;;;;;;;2.70;1.50;;;;;;;13.85;70.04;98358.31;106644;1277;138095;-71
2022/09/20 12:00:50;;;;;;;1.90;1.40;;;;;;;14.05;69.71;98359.63;105871;1277;26666;-70
2022/09/20 12:03:36;;;;;;;1.80;1.50;;;;;;;14.03;68.28;98360.81;106504;1277;22547;-70
2022/09/20 12:06:06;;;;;;;1.70;1.20;;;;;;;14.23;66.92;98356.09;105773;1278;30492;-70
2022/09/20 12:08:39;;;;;;;1.10;1.00;;;;;;;14.37;66.57;98350.80;105809;1278;22899;-71
2022/09/20 12:11:11;;;;;;;2.00;1.30;;;;;;;14.29;64.76;98352.21;105982;1278;138012;-71
2022/09/20 12:13:41;;;;;;;1.50;1.40;;;;;;;14.06;64.52;98355.62;105600;1278;24260;-71
2022/09/20 12:16:15;;;;;;;2.00;1.60;;;;;;;13.84;64.97;98354.20;106076;1277;137595;-71
2022/09/20 12:18:52;;;;;;;2.60;1.30;;;;;;;13.71;66.07;98353.66;106047;1277;22559;-71
2022/09/20 12:21:20;;;;;;;2.80;1.20;;;;;;;13.60;66.43;98351.65;105897;1277;25259;-71
2022/09/20 12:24:09;;;;;;;3.40;1.50;;;;;;;13.60;66.54;98352.30;106033;1277;137042;-70